Latest Coastal Weather Observations for Eucla

IDW60701

Issued at 4:22 pm WST Thursday 30 June 2016 (issued every 10 minutes, with the page automatically refreshed every 10 minutes)

About coastal observations | Map of coastal stations | Coastal observations for WA | Marine services | Other Formats
Station Details ID: 011003 Name: EUCLA Lat: -31.68 Lon: 128.90 Height: 93.1 m
Data from the previous 72 hours. | See also: Recent months at Eucla
Date/Time
WST
Temp
°C
Wind Pressure Rain since
9am
mm
Weather Cloud Vis
km
Sea
Height
m
Swell
Dir  Spd
kts
Gust
kts
hPa Trend Height
m
Period
s
Dir
30/04:00pm 13.9 S 5 7 1023.7 - 0.0 - - - - - - -
30/03:30pm 15.2 SSW 7 9 1023.4 - 0.0 - - - - - - -
30/03:00pm 15.7 SSW 7 10 1023.2 - 0.0 Fine Partly cloudy 40 - - - -
30/02:30pm 16.3 SSW 8 11 1023.0 - 0.0 - - - - - - -
30/02:00pm 15.9 SSW 8 15 1022.9 - 0.0 - - - - - - -
30/01:30pm 15.9 SSW 8 13 1022.8 - 0.0 - - - - - - -
30/01:00pm 16.2 SSW 8 12 1022.8 - 0.0 - - - - - - -
30/12:30pm 16.5 SSW 10 16 1022.9 - 0.0 - - - - - - -
30/12:00pm 16.4 SW 9 15 1023.1 - 0.0 - - - - - - -
30/11:30am 16.5 SW 12 18 1023.3 - 0.0 - - - - - - -
30/11:00am 17.5 SSW 10 17 1023.4 - 0.0 - - - - - - -
30/10:30am 17.0 SW 8 13 1023.7 - 0.0 - - - - - - -
30/10:00am 16.4 SW 8 14 1023.8 - 0.0 - - - - - - -
30/09:30am 15.9 WSW 9 14 1023.9 - 0.0 - - - - - - -
30/09:00am 14.5 WSW 7 12 1023.9 - 0.0 Haze Mostly clear 25 - - - -
30/08:30am 13.3 WNW 6 9 1023.6 - 0.0 - - - - - - -
30/08:00am 11.7 WNW 7 9 1023.3 - 0.0 - - - - - - -
30/07:30am 10.6 WNW 6 9 1023.0 - 0.0 - - - - - - -
30/07:00am 9.7 WNW 6 9 1022.5 - 0.0 - - - - - - -
30/06:30am 11.3 NW 6 7 1022.1 - 0.0 - - - - - - -
30/06:00am 11.1 WNW 7 9 1021.7 - 0.0 - - - - - - -
30/05:30am 11.4 WNW 6 8 1021.3 - 0.0 - - - - - - -
30/05:00am 11.0 WNW 6 8 1020.7 - 0.0 - - - - - - -
30/04:30am 10.1 WNW 6 9 1020.4 - 0.0 - - - - - - -
30/04:00am 10.1 WNW 6 8 1020.3 - 0.0 - - - - - - -
30/03:30am 10.8 WNW 5 7 1020.1 - 0.0 - - - - - - -
30/03:00am 11.9 NW 5 7 1019.6 - 0.0 - - - - - - -
30/02:30am 12.0 WSW 8 13 1019.6 - 0.0 - - - - - - -
30/02:00am 12.4 W 7 11 1019.2 - 0.0 - - - - - - -
30/01:30am 12.4 W 6 10 1019.2 - 0.0 - - - - - - -
30/01:00am 12.6 WNW 5 8 1018.9 - 0.0 - - - - - - -
30/12:30am 13.1 WNW 6 8 1018.8 - 0.0 - - - - - - -
30/12:00am 12.4 WNW 6 8 1018.8 - 0.0 - - - - - - -
 
Date/Time
WST
Temp
°C
Wind Pressure Rain since
9am
mm
Weather Cloud Vis
km
Sea
Height
m
Swell
Dir  Spd
kts
Gust
kts
hPa Trend Height
m
Period
s
Dir
29/11:30pm 13.5 W 6 8 1018.9 - 0.0 - - - - - - -
29/11:00pm 13.8 W 7 9 1018.8 - 0.0 - - - - - - -
29/10:30pm 13.9 WSW 7 9 1018.8 - 0.0 - - - - - - -
29/10:00pm 13.6 WSW 7 10 1018.6 - 0.0 - - - - - - -
29/09:30pm 13.7 WSW 7 9 1018.4 - 0.0 - - - - - - -
29/09:00pm 13.8 WSW 7 9 1018.2 - 0.0 - - - - - - -
29/08:30pm 14.1 WSW 6 9 1017.9 - 0.0 - - - - - - -
29/08:00pm 14.6 WSW 6 8 1017.7 - 0.0 - - - - - - -
29/07:30pm 14.9 WSW 6 8 1017.4 - 0.0 - - - - - - -
29/07:00pm 15.0 WSW 6 8 1017.0 - 0.0 - - - - - - -
29/06:30pm 14.8 WSW 5 8 1016.9 - 0.0 - - - - - - -
29/06:00pm 15.5 SW 5 8 1016.5 - 0.0 - - - - - - -
29/05:30pm 15.5 SW 6 9 1016.2 - 0.0 - - - - - - -
29/05:00pm 15.9 SW 6 10 1015.7 - 0.0 - - - - - - -
29/04:30pm 16.2 SW 8 13 1015.3 - 0.0 - - - - - - -
29/04:00pm 18.8 W 9 16 1014.6 - 0.0 - - - - - - -
29/03:30pm 21.5 WNW 10 16 1013.9 - 0.0 - - - - - - -
29/03:00pm 21.7 WNW 11 17 1013.6 - 0.0 Fine Partly cloudy 40 - - - -
29/02:30pm 22.2 WNW 12 18 1013.2 - 0.0 - - - - - - -
29/02:00pm 22.4 WNW 13 20 1013.6 - 0.0 - - - - - - -
29/01:30pm 22.6 WNW 14 20 1013.6 - 0.0 - - - - - - -
29/01:00pm 22.3 NW 15 21 1013.8 - 0.0 - - - - - - -
29/12:30pm 21.8 WNW 13 20 1014.1 - 0.0 - - - - - - -
29/12:00pm 22.0 NW 13 18 1014.6 - 0.0 - - - - - - -
29/11:30am 21.8 WNW 14 19 1015.0 - 0.0 - - - - - - -
29/11:00am 20.6 WNW 13 19 1015.6 - 0.0 - - - - - - -
29/10:30am 19.9 NW 13 18 1016.1 - 0.0 - - - - - - -
29/10:00am 18.3 NW 11 16 1016.5 - 0.0 - - - - - - -
29/09:30am 17.0 NNW 11 17 1016.8 - 0.0 - - - - - - -
29/09:00am 15.3 NNW 12 17 1017.0 - 0.0 Fine Clear 40 - - - -
29/08:30am 13.3 NNW 13 18 1016.9 - 0.0 - - - - - - -
29/08:00am 11.1 NNW 12 17 1016.9 - 0.0 - - - - - - -
29/07:30am 9.7 NNW 11 18 1016.8 - 0.0 - - - - - - -
29/07:00am 8.3 NNW 10 13 1016.6 - 0.0 - - - - - - -
29/06:30am 6.5 NNW 9 13 1016.4 - 0.0 - - - - - - -
29/06:00am 6.3 NNW 9 13 1016.1 - 0.0 - - - - - - -
29/05:30am 5.9 N 8 10 1016.1 - 0.0 - - - - - - -
29/05:00am 6.2 N 8 10 1016.0 - 0.0 - - - - - - -
29/04:30am 6.4 N 8 10 1015.8 - 0.0 - - - - - - -
29/04:00am 6.2 N 8 11 1016.0 - 0.0 - - - - - - -
29/03:30am 6.2 N 8 10 1015.9 - 0.0 - - - - - - -
29/03:00am 5.9 N 7 8 1016.2 - 0.0 - - - - - - -
29/02:30am 6.3 N 7 9 1016.3 - 0.0 - - - - - - -
29/02:00am 6.3 N 7 9 1016.5 - 0.0 - - - - - - -
29/01:30am 6.2 N 8 10 1016.8 - 0.0 - - - - - - -
29/01:00am 6.8 N 7 8 1017.0 - 0.0 - - - - - - -
29/12:30am 6.9 N 7 9 1017.2 - 0.0 - - - - - - -
29/12:00am 7.2 N 7 9 1017.4 - 0.0 - - - - - - -
 
Date/Time
WST
Temp
°C
Wind Pressure Rain since
9am
mm
Weather Cloud Vis
km
Sea
Height
m
Swell
Dir  Spd
kts
Gust
kts
hPa Trend Height
m
Period
s
Dir
28/11:30pm 7.9 N 8 10 1017.6 - 0.0 - - - - - - -
28/11:00pm 7.6 N 7 9 1017.8 - 0.0 - - - - - - -
28/10:30pm 8.1 N 7 9 1018.0 - 0.0 - - - - - - -
28/10:00pm 8.8 N 8 10 1018.2 - 0.0 - - - - - - -
28/09:30pm 9.6 N 7 10 1018.4 - 0.0 - - - - - - -
28/09:00pm 10.1 N 8 10 1018.3 - 0.0 - - - - - - -
28/08:30pm 9.6 N 7 9 1018.4 - 0.0 - - - - - - -
28/08:00pm 10.0 N 7 9 1018.7 - 0.0 - - - - - - -
28/07:30pm 10.3 N 8 9 1018.6 - 0.0 - - - - - - -
28/07:00pm 10.4 NNE 7 9 1018.7 - 0.0 - - - - - - -
28/06:30pm 10.7 NNE 7 8 1018.7 - 0.0 - - - - - - -
28/06:00pm 11.3 N 7 8 1018.5 - 0.0 - - - - - - -
28/05:30pm 11.8 N 7 8 1018.2 - 0.0 - - - - - - -
28/05:00pm 13.0 N 6 7 1017.9 - 0.0 - - - - - - -
28/04:30pm 15.1 N 7 9 1017.9 - 0.0 - - - - - - -
28/04:00pm 16.4 N 9 14 1017.8 - 0.0 - - - - - - -
28/03:30pm 17.4 N 9 15 1017.9 - 0.0 - - - - - - -
28/03:00pm 17.9 N 11 17 1018.0 - 0.0 Fine Clear 40 - - - -
28/02:30pm 18.1 N 11 15 1017.9 - 0.0 - - - - - - -
28/02:00pm 18.2 N 10 17 1017.9 - 0.0 - - - - - - -
28/01:30pm 17.9 N 11 16 1018.2 - 0.0 - - - - - - -
28/01:00pm 17.8 N 10 15 1018.9 - 0.0 - - - - - - -
28/12:30pm 17.7 NNW 12 19 1019.6 - 0.0 - - - - - - -
28/12:00pm 18.0 NNW 13 18 1020.5 - 0.0 - - - - - - -
28/11:30am 17.3 NNW 12 19 1021.1 - 0.0 - - - - - - -
28/11:00am 17.0 NNW 11 17 1021.8 - 0.0 - - - - - - -
28/10:30am 16.2 N 11 17 1022.6 - 0.0 - - - - - - -
28/10:00am 15.1 N 11 17 1023.3 - 0.0 - - - - - - -
28/09:30am 14.6 N 12 18 1023.6 - 0.0 - - - - - - -
28/09:00am 13.3 N 10 16 1023.8 - 0.0 Fine Mostly clear 40 - - - -
28/08:30am 11.3 N 9 15 1023.8 - 0.0 - - - - - - -
28/08:00am 10.3 N 11 16 1023.7 - 0.0 - - - - - - -
28/07:30am 8.7 N 11 16 1023.5 - 0.0 - - - - - - -
28/07:00am 6.7 N 10 13 1023.5 - 0.0 - - - - - - -
28/06:30am 5.7 N 10 14 1023.1 - 0.0 - - - - - - -
28/06:00am 5.8 N 9 14 1022.9 - 0.0 - - - - - - -
28/05:30am 6.2 N 10 14 1022.6 - 0.0 - - - - - - -
28/05:00am 6.4 N 9 13 1022.3 - 0.0 - - - - - - -
28/04:30am 6.7 N 9 14 1022.2 - 0.0 - - - - - - -
28/04:00am 7.0 N 9 13 1022.3 - 0.0 - - - - - - -
28/03:30am 7.2 N 9 13 1022.3 - 0.0 - - - - - - -
28/03:00am 7.0 NNE 8 11 1022.4 - 0.0 - - - - - - -
28/02:30am 6.8 NNE 8 10 1022.4 - 0.0 - - - - - - -
28/02:00am 6.1 N 8 10 1022.6 - 0.0 - - - - - - -
28/01:30am 6.3 N 8 9 1022.5 - 0.0 - - - - - - -
28/01:00am 4.6 N 7 8 1022.8 - 0.0 - - - - - - -
28/12:30am 4.2 N 7 8 1022.8 - 0.0 - - - - - - -
28/12:00am 4.4 N 7 7 1023.0 - 0.0 - - - - - - -
 
Date/Time
WST
Temp
°C
Wind Pressure Rain since
9am
mm
Weather Cloud Vis
km
Sea
Height
m
Swell
Dir  Spd
kts
Gust
kts
hPa Trend Height
m
Period
s
Dir
27/11:30pm 4.3 N 7 7 1023.4 - 0.0 - - - - - - -
27/11:00pm 4.8 N 6 7 1023.4 - 0.0 - - - - - - -
27/10:30pm 5.6 N 7 8 1023.3 - 0.0 - - - - - - -
27/10:00pm 6.0 N 8 9 1023.5 - 0.0 - - - - - - -
27/09:30pm 6.1 N 7 8 1023.7 - 0.0 - - - - - - -
27/09:00pm 7.0 NNE 7 8 1023.5 - 0.0 - - - - - - -
27/08:30pm 7.7 NNE 7 8 1023.5 - 0.0 - - - - - - -
27/08:00pm 8.4 NE 6 8 1023.5 - 0.0 - - - - - - -
27/07:30pm 9.0 NE 6 7 1023.7 - 0.0 - - - - - - -
27/07:00pm 9.8 NE 6 8 1023.8 - 0.0 - - - - - - -
27/06:30pm 10.3 NE 7 8 1023.6 - 0.0 - - - - - - -
27/06:00pm 10.4 NE 6 7 1023.6 - 0.0 - - - - - - -
27/05:30pm 10.1 NE 6 7 1023.3 - 0.0 - - - - - - -
27/05:00pm 9.6 N 4 5 1023.1 - 0.0 - - - - - - -
27/04:30pm 11.5 NNW 4 5 1022.9 - 0.0 - - - - - - -

Other Formats:

Comma delimited format used in spreadsheet applications
http://www.bom.gov.au/fwo/IDW60701/IDW60701.94647.axf

JavaScript Object Notation format (JSON) in row-major order
http://www.bom.gov.au/fwo/IDW60701/IDW60701.94647.json